createdAt,value
2022-12-31T11:42:22.576Z,99997
2022-12-31T11:48:40.075Z,99989
2022-12-31T11:54:29.418Z,99973
2022-12-31T12:00:19.089Z,99979
2022-12-31T12:06:11.655Z,99989
2022-12-31T12:12:02.532Z,99970
2022-12-31T12:17:52.871Z,99961
2022-12-31T12:23:46.325Z,99967
2022-12-31T12:29:37.336Z,99957
2022-12-31T12:35:27.013Z,99944
2022-12-31T12:41:18.650Z,99915
2022-12-31T12:47:11.032Z,99925
2022-12-31T12:53:02.777Z,99937
2022-12-31T12:58:52.401Z,99946
2022-12-31T13:04:43.015Z,99962
2022-12-31T13:10:32.666Z,99970
2022-12-31T13:16:23.536Z,99969
2022-12-31T13:22:13.639Z,99966
2022-12-31T13:28:03.921Z,99957
2022-12-31T13:33:54.254Z,99980
2022-12-31T13:39:44.954Z,99980
2022-12-31T13:45:35.591Z,99977
2022-12-31T13:51:26.412Z,99980
2022-12-31T13:57:15.608Z,99962
2022-12-31T14:03:06.887Z,99958
2022-12-31T14:08:57.438Z,99980
2022-12-31T14:14:47.819Z,99949
2022-12-31T14:20:37.404Z,99969
2022-12-31T14:26:26.758Z,99963
2022-12-31T14:32:17.286Z,99972
2022-12-31T14:38:08.630Z,99960
2022-12-31T14:43:59.157Z,99965
2022-12-31T14:49:49.279Z,99955
2022-12-31T14:55:40.518Z,99953
2022-12-31T15:01:31.108Z,99953
2022-12-31T15:07:23.284Z,99944
2022-12-31T15:13:13.414Z,99963
2022-12-31T15:19:03.795Z,99952
2022-12-31T15:24:53.694Z,99977
2022-12-31T15:30:44.602Z,99971
2022-12-31T15:36:35.963Z,99987
2022-12-31T15:42:54.699Z,99995
2022-12-31T15:48:43.060Z,99992
2022-12-31T15:54:37.519Z,99995
2022-12-31T16:00:27.822Z,100008
2022-12-31T16:06:19.095Z,100029
2022-12-31T16:12:09.547Z,100021
2022-12-31T16:17:59.809Z,100031
2022-12-31T16:23:52.000Z,100013
2022-12-31T16:29:42.538Z,100031
2022-12-31T16:35:36.614Z,100027
2022-12-31T16:41:29.082Z,100040
2022-12-31T16:47:18.574Z,100026
2022-12-31T16:53:08.523Z,100013
2022-12-31T16:58:58.444Z,100015
2022-12-31T17:04:58.011Z,100029
2022-12-31T17:10:47.349Z,100013
2022-12-31T17:16:38.335Z,100021
2022-12-31T17:22:39.472Z,100024
2022-12-31T17:28:30.375Z,100027
2022-12-31T17:34:20.427Z,100019
2022-12-31T17:40:53.644Z,100014
2022-12-31T17:46:42.384Z,100012
2022-12-31T17:52:32.173Z,100004
2022-12-31T17:58:30.855Z,99996
2022-12-31T18:04:20.862Z,100008
2022-12-31T18:10:11.062Z,100002
2022-12-31T18:16:02.636Z,100010
2022-12-31T18:21:52.960Z,100005
2022-12-31T18:27:43.600Z,100010
2022-12-31T18:33:33.379Z,100003
2022-12-31T18:39:25.337Z,99999
2022-12-31T18:45:16.085Z,99992
2022-12-31T18:51:05.653Z,100006
2022-12-31T18:57:00.337Z,99978
2022-12-31T19:02:51.328Z,100000
2022-12-31T19:08:41.485Z,99983
2022-12-31T19:14:32.014Z,100022
2022-12-31T19:20:21.575Z,100013
2022-12-31T19:26:11.039Z,99997
2022-12-31T19:32:01.818Z,99988
2022-12-31T19:37:54.323Z,100012
2022-12-31T19:43:45.001Z,100016
2022-12-31T19:49:37.904Z,100023
2022-12-31T19:55:28.328Z,99990
2022-12-31T20:01:18.852Z,100015
2022-12-31T20:07:09.862Z,100027
2022-12-31T20:13:00.042Z,100026
2022-12-31T20:18:50.462Z,100010
2022-12-31T20:24:40.349Z,100023
2022-12-31T20:30:30.704Z,100064
2022-12-31T20:36:21.824Z,100060
2022-12-31T20:42:11.903Z,100076
2022-12-31T20:48:02.644Z,100091
2022-12-31T20:53:53.635Z,100088
2022-12-31T20:59:43.632Z,100084
2022-12-31T21:05:34.570Z,100066
2022-12-31T21:11:26.879Z,100066
2022-12-31T21:17:17.839Z,100077
2022-12-31T21:23:07.451Z,100080
2022-12-31T21:28:57.931Z,100097
2022-12-31T21:35:48.608Z,100137
2022-12-31T21:41:46.984Z,100138
2022-12-31T21:47:49.443Z,100129
2022-12-31T21:53:40.839Z,100140
2022-12-31T21:59:31.326Z,100151
2022-12-31T22:05:28.415Z,100163
2022-12-31T22:11:20.247Z,100159
2022-12-31T22:17:11.220Z,100174
2022-12-31T22:23:02.181Z,100175
2022-12-31T22:28:52.696Z,100176
2022-12-31T22:34:43.487Z,100173
2022-12-31T22:40:34.481Z,100172
2022-12-31T22:46:26.304Z,100171
2022-12-31T22:52:16.875Z,100174
2022-12-31T22:58:09.041Z,100171
2022-12-31T23:03:59.937Z,100172
2022-12-31T23:09:50.914Z,100172
2022-12-31T23:15:42.887Z,100180
2022-12-31T23:21:35.435Z,100171
2022-12-31T23:27:25.599Z,100172
2022-12-31T23:33:16.959Z,100166
2022-12-31T23:39:08.576Z,100157
2022-12-31T23:45:00.753Z,100148
2022-12-31T23:50:57.303Z,100143
2022-12-31T23:56:50.432Z,100143
